Selby, South Dakota
Current Conditions -  °F | °C
As of 8:52 AM on Wednesday 22 Oct 2014 (Local Time) from KMBG Reporting Station
Overcast Overcast  
Wind Chill: 58°   Ceiling: 10000
Heat Index: 58°   Visibility: 10mi
Dew Point: 49°   Wind: 14mph
Humidity: 72%   Direction: 280°W
Pressure: 29.84"   Gusts: NA
Location:  45.51°N, 100.03°W
Report Text: KMBG 221352Z AUTO 28012KT 10SM FEW065 SCT080 OVC100 14/09 A2984 RMK AO2 RAB1257E12 PRESRR SLP102 P0000 T01440094
Loading
Personal Weather Stations






























Interactive Weather Map
Tropical Storm Tracking
New forecast layout! Learn more

10-Day Weather Forecast

Advertisements
Track Severe Weather on mobile